createdAt,value
2023-04-03T00:00:50.150Z,101049.11
2023-04-03T00:02:55.314Z,101056.23
2023-04-03T00:05:00.488Z,101053.86
2023-04-03T00:07:05.524Z,101059.59
2023-04-03T00:09:11.811Z,101054.59
2023-04-03T00:11:16.962Z,101051.2
2023-04-03T00:13:22.008Z,101050.6
2023-04-03T00:15:27.192Z,101060.07
2023-04-03T00:17:32.335Z,101054.14
2023-04-03T00:19:37.478Z,101066.66
2023-04-03T00:21:42.541Z,101058.66
2023-04-03T00:23:47.576Z,101052.8
2023-04-03T00:25:52.740Z,101058.24
2023-04-03T00:27:58.034Z,101056.79
2023-04-03T00:30:03.182Z,101062.31
2023-04-03T00:32:08.200Z,101059.72
2023-04-03T00:34:13.245Z,101053.86
2023-04-03T00:36:18.390Z,101058.8
2023-04-03T00:38:23.664Z,101057.67
2023-04-03T00:40:28.796Z,101058.33
2023-04-03T00:42:33.828Z,101058.64
2023-04-03T00:44:39.034Z,101054.09
2023-04-03T00:46:44.190Z,101059.17
2023-04-03T00:48:49.443Z,101060.91
2023-04-03T00:50:54.526Z,101061.19
2023-04-03T00:52:59.680Z,101059.17
2023-04-03T00:55:04.854Z,101063.36
2023-04-03T00:57:09.992Z,101067.13
2023-04-03T00:59:15.238Z,101066.3
2023-04-03T01:01:20.329Z,101064.15
2023-04-03T01:03:25.573Z,101066.63
2023-04-03T01:05:30.606Z,101071.94
2023-04-03T01:07:35.731Z,101071.67
2023-04-03T01:09:40.748Z,101074.67
2023-04-03T01:11:45.775Z,101072.7
2023-04-03T01:13:50.812Z,101071.81
2023-04-03T01:15:56.029Z,101075.83
2023-04-03T01:18:01.356Z,101076.48
2023-04-03T01:20:06.528Z,101076.92
2023-04-03T01:22:11.570Z,101074.33
2023-04-03T01:24:16.570Z,101078.03
2023-04-03T01:26:21.655Z,101077.79
2023-04-03T01:28:26.969Z,101081.08
2023-04-03T01:30:32.149Z,101081.03
2023-04-03T01:32:37.400Z,101084.13
2023-04-03T01:34:42.549Z,101083.15
2023-04-03T01:36:47.578Z,101084.58
2023-04-03T01:38:52.604Z,101082.56
2023-04-03T01:40:57.750Z,101082.66
2023-04-03T01:43:02.853Z,101083.95
2023-04-03T01:45:08.024Z,101088.28
2023-04-03T01:47:13.053Z,101090.57
2023-04-03T01:49:18.124Z,101080.14
2023-04-03T01:51:23.295Z,101082.67
2023-04-03T01:53:28.384Z,101092.77
2023-04-03T01:55:33.449Z,101102.83
2023-04-03T01:57:38.502Z,101097.7
2023-04-03T01:59:43.534Z,101089.38
2023-04-03T02:01:48.672Z,101103.02
2023-04-03T02:03:53.970Z,101106.24
2023-04-03T02:05:59.121Z,101106.8
2023-04-03T02:08:04.158Z,101104.52
2023-04-03T02:10:09.246Z,101105.28
2023-04-03T02:12:14.414Z,101104.77
2023-04-03T02:14:19.481Z,101111.98
2023-04-03T02:16:24.664Z,101112.25
2023-04-03T02:18:29.732Z,101101.05
2023-04-03T02:20:35.073Z,101109.55
2023-04-03T02:22:40.571Z,101095.92
2023-04-03T02:24:45.652Z,101107.8
2023-04-03T02:26:50.769Z,101106.22
2023-04-03T02:28:55.813Z,101112.03
2023-04-03T02:32:28.194Z,101111.91
2023-04-03T02:34:33.303Z,101112.41
2023-04-03T02:36:38.545Z,101109.29
2023-04-03T02:38:43.610Z,101101.83
2023-04-03T02:40:48.646Z,101110.41
2023-04-03T02:42:53.700Z,101109.58
2023-04-03T02:45:01.672Z,101111.95
2023-04-03T02:47:06.784Z,101107.78
2023-04-03T02:49:12.018Z,101103.39
2023-04-03T02:51:17.083Z,101113.52
2023-04-03T02:53:22.145Z,101114.83
2023-04-03T02:55:27.167Z,101114.12
2023-04-03T02:57:32.478Z,101123.94
2023-04-03T02:59:37.724Z,101122.3
2023-04-03T03:01:42.914Z,101121.19
2023-04-03T03:03:47.994Z,101125.45
2023-04-03T03:05:53.030Z,101116.34
2023-04-03T03:07:58.095Z,101121.86
2023-04-03T03:10:03.165Z,101118.98
2023-04-03T03:12:08.206Z,101107.69
2023-04-03T03:14:13.281Z,101115.52
2023-04-03T03:16:18.452Z,101125.42
2023-04-03T03:18:23.667Z,101128.34
2023-04-03T03:20:28.731Z,101121.22
2023-04-03T03:22:34.150Z,101123.92
2023-04-03T03:24:39.210Z,101130.53
2023-04-03T03:26:44.323Z,101113.22
2023-04-03T03:28:49.370Z,101115.34
2023-04-03T03:30:54.402Z,101125.33
2023-04-03T03:32:59.545Z,101130.19
2023-04-03T03:35:04.846Z,101135.05
2023-04-03T03:37:09.860Z,101135.66
2023-04-03T03:39:15.007Z,101142.09
2023-04-03T03:41:20.081Z,101125.25
2023-04-03T03:43:25.111Z,101129.43
2023-04-03T03:45:30.276Z,101139.52
2023-04-03T03:47:35.495Z,101139.85
2023-04-03T03:49:40.576Z,101141.86
2023-04-03T03:51:45.687Z,101144.56
2023-04-03T03:53:50.711Z,101151.66
2023-04-03T03:55:55.764Z,101147.71
2023-04-03T03:58:00.898Z,101140.45
2023-04-03T04:00:06.024Z,101130.16
2023-04-03T04:02:11.171Z,101150.97
2023-04-03T04:04:16.527Z,101134.69
2023-04-03T04:06:21.724Z,101152.91
2023-04-03T04:08:26.785Z,101156.59
2023-04-03T04:10:31.863Z,101149.84
2023-04-03T04:12:36.982Z,101157.59
2023-04-03T04:14:42.028Z,101159.77
2023-04-03T04:16:47.221Z,101161.78
2023-04-03T04:18:52.424Z,101149.05
2023-04-03T04:20:57.453Z,101161.67
2023-04-03T04:23:02.505Z,101173.48
2023-04-03T04:25:07.713Z,101176
2023-04-03T04:27:12.853Z,101163.54
2023-04-03T04:29:17.893Z,101174.91
2023-04-03T04:31:23.112Z,101178.59
2023-04-03T04:33:28.188Z,101163.54
2023-04-03T04:35:33.473Z,101178.47
2023-04-03T04:37:38.804Z,101181.88
2023-04-03T04:39:43.896Z,101183.55
2023-04-03T04:41:48.940Z,101188.15
2023-04-03T04:43:54.008Z,101189.52
2023-04-03T04:45:59.152Z,101193.59
2023-04-03T04:48:04.330Z,101196.81
2023-04-03T04:50:09.630Z,101198.26
2023-04-03T04:52:14.747Z,101200.99
2023-04-03T04:54:19.932Z,101183.24
2023-04-03T04:56:24.977Z,101183.49
2023-04-03T04:58:30.038Z,101183.86
2023-04-03T05:00:35.061Z,101194.42
2023-04-03T05:02:40.537Z,101190.37
2023-04-03T05:04:45.807Z,101195.63
2023-04-03T05:06:51.021Z,101190.27
2023-04-03T05:08:56.055Z,101187.69
2023-04-03T05:11:01.183Z,101196.35
2023-04-03T05:13:06.265Z,101193.87
2023-04-03T05:15:11.406Z,101198.69
2023-04-03T05:17:16.564Z,101199.77
2023-04-03T05:19:21.597Z,101196.83
2023-04-03T05:21:26.619Z,101200.67
2023-04-03T05:23:31.642Z,101211.25
2023-04-03T05:25:37.307Z,101206.6
2023-04-03T05:27:42.840Z,101211.98
2023-04-03T05:29:47.891Z,101216.31
2023-04-03T05:31:53.150Z,101220.14
2023-04-03T05:33:58.455Z,101214.06
2023-04-03T05:36:03.621Z,101219.01
2023-04-03T05:38:08.921Z,101216.05
2023-04-03T05:40:14.456Z,101218.28
2023-04-03T05:42:22.483Z,101224.28
2023-04-03T05:44:27.530Z,101225.45
2023-04-03T05:46:32.630Z,101211.86
2023-04-03T05:48:37.648Z,101226.68
2023-04-03T05:50:42.712Z,101229.95
2023-04-03T05:52:47.953Z,101221.81
2023-04-03T05:54:53.353Z,101231.12
2023-04-03T05:56:58.626Z,101216.7
2023-04-03T05:59:03.782Z,101230.59
2023-04-03T06:01:08.794Z,101230.14
2023-04-03T06:03:14.273Z,101219.28
2023-04-03T06:05:19.742Z,101219.36
2023-04-03T06:07:24.879Z,101239.56
2023-04-03T06:09:29.975Z,101236.17
2023-04-03T06:11:35.263Z,101233.36
2023-04-03T06:13:40.290Z,101221.25
2023-04-03T06:15:45.373Z,101235.79
2023-04-03T06:17:50.564Z,101236.52
2023-04-03T06:19:55.659Z,101239.2
2023-04-03T06:22:00.803Z,101240.59
2023-04-03T06:24:05.847Z,101237.34
2023-04-03T06:26:11.061Z,101244.7
2023-04-03T06:28:16.093Z,101229.63
2023-04-03T06:30:21.140Z,101238.41
2023-04-03T06:32:26.226Z,101242.45
2023-04-03T06:34:31.392Z,101242.53
2023-04-03T06:36:36.557Z,101237.14
2023-04-03T06:38:41.754Z,101250.5
2023-04-03T06:40:46.813Z,101252.74
2023-04-03T06:42:51.866Z,101249.85
2023-04-03T06:44:56.900Z,101259.8
2023-04-03T06:47:02.014Z,101258.54
2023-04-03T06:49:07.133Z,101248.15
2023-04-03T06:51:12.253Z,101252.89
2023-04-03T06:53:17.326Z,101268.66
2023-04-03T06:55:22.388Z,101261.41
2023-04-03T06:57:27.676Z,101270.7
2023-04-03T06:59:32.870Z,101270.13
2023-04-03T07:01:38.042Z,101270.85
2023-04-03T07:03:43.255Z,101265.17
2023-04-03T07:05:48.302Z,101269.06
2023-04-03T07:07:53.336Z,101276.58
2023-04-03T07:09:58.401Z,101277
2023-04-03T07:12:03.466Z,101288.2
2023-04-03T07:14:08.713Z,101287.45
2023-04-03T07:16:13.961Z,101293.52
2023-04-03T07:18:19.349Z,101290.7
2023-04-03T07:20:24.462Z,101294.34
2023-04-03T07:22:29.543Z,101301.3
2023-04-03T07:24:34.625Z,101296.15
2023-04-03T07:26:39.717Z,101297.19
2023-04-03T07:28:44.789Z,101291.53
2023-04-03T07:30:49.832Z,101293.31
2023-04-03T07:32:55.054Z,101299.33
2023-04-03T07:35:01.674Z,101303.84
2023-04-03T07:37:08.061Z,101298.31
2023-04-03T07:39:13.163Z,101302.19
2023-04-03T07:41:18.208Z,101296.11
2023-04-03T07:43:23.331Z,101304.69
2023-04-03T07:45:28.592Z,101305.16
2023-04-03T07:47:33.851Z,101303.03
2023-04-03T07:49:39.039Z,101306.89
2023-04-03T07:51:44.183Z,101294.7
2023-04-03T07:53:49.243Z,101295.8
2023-04-03T07:55:54.297Z,101303.81
2023-04-03T07:57:59.562Z,101303.73
2023-04-03T08:00:04.736Z,101293.14
2023-04-03T08:02:09.776Z,101300.08
2023-04-03T08:04:15.268Z,101301.27
2023-04-03T08:06:42.525Z,101303.32
2023-04-03T08:08:51.242Z,101302.86
2023-04-03T08:10:56.270Z,101307.66
2023-04-03T08:13:01.412Z,101311.55
2023-04-03T08:15:06.499Z,101305.41
2023-04-03T08:17:11.546Z,101300.94
2023-04-03T08:19:27.257Z,101301.57
2023-04-03T08:21:32.326Z,101302.33
2023-04-03T08:23:37.405Z,101303.09
2023-04-03T08:25:42.558Z,101307.34
2023-04-03T08:27:47.634Z,101318.05
2023-04-03T08:29:52.727Z,101314.44
2023-04-03T08:31:57.801Z,101308.8
2023-04-03T08:34:02.993Z,101306.45
2023-04-03T08:36:08.163Z,101304.97
2023-04-03T08:38:13.327Z,101299.89
2023-04-03T08:40:18.451Z,101302.38
2023-04-03T08:42:23.615Z,101303.29
2023-04-03T08:44:28.754Z,101304.19
2023-04-03T08:46:33.941Z,101307.8
2023-04-03T08:48:39.219Z,101305.34
2023-04-03T08:50:44.307Z,101303.73
2023-04-03T08:52:49.404Z,101296.95
2023-04-03T08:54:54.495Z,101290.66
2023-04-03T08:56:59.575Z,101299.49
2023-04-03T08:59:04.780Z,101288.45
2023-04-03T09:01:09.852Z,101302.71
2023-04-03T09:03:15.330Z,101296.92
2023-04-03T09:05:20.645Z,101296.05
2023-04-03T09:07:27.914Z,101294.11
2023-04-03T09:09:33.131Z,101291.72
2023-04-03T09:11:38.351Z,101297.94
2023-04-03T09:13:43.387Z,101296.09
2023-04-03T09:15:48.519Z,101295.38
2023-04-03T09:17:53.642Z,101291.27
2023-04-03T09:19:58.823Z,101300.67
2023-04-03T09:22:03.881Z,101297.08
2023-04-03T09:24:09.053Z,101299.61
2023-04-03T09:26:14.107Z,101297.22
2023-04-03T09:28:19.290Z,101300.23
2023-04-03T09:30:24.632Z,101285.91
2023-04-03T09:32:29.838Z,101293.8
2023-04-03T09:34:34.987Z,101297.92
2023-04-03T09:36:40.051Z,101292.72
2023-04-03T09:38:45.055Z,101293.95
2023-04-03T09:40:50.148Z,101312.84
2023-04-03T09:43:02.097Z,101300.86
2023-04-03T09:45:07.264Z,101304.13
2023-04-03T09:47:12.388Z,101290.55
2023-04-03T09:49:17.679Z,101301.4
2023-04-03T09:51:22.743Z,101301.84
2023-04-03T09:53:27.760Z,101301.41
2023-04-03T09:55:32.832Z,101305.16
2023-04-03T09:57:38.194Z,101311.39
2023-04-03T09:59:43.373Z,101308.73
2023-04-03T10:01:48.444Z,101305.11
2023-04-03T10:03:53.716Z,101296.47
2023-04-03T10:05:58.751Z,101298.91
2023-04-03T10:08:05.365Z,101294.78
2023-04-03T10:10:10.615Z,101304.41
2023-04-03T10:12:15.716Z,101295.91
2023-04-03T10:14:20.795Z,101309.87
2023-04-03T10:16:25.985Z,101314.8
2023-04-03T10:18:31.359Z,101299.98
2023-04-03T10:20:36.772Z,101297.4
2023-04-03T10:22:42.688Z,101298.35
2023-04-03T10:24:47.770Z,101290.05
2023-04-03T10:26:52.820Z,101291.38
2023-04-03T10:28:57.884Z,101294.43
2023-04-03T10:31:03.219Z,101297.63
2023-04-03T10:33:08.392Z,101288.25
2023-04-03T10:35:13.392Z,101290.97
2023-04-03T10:37:18.507Z,101280.6
2023-04-03T10:39:23.623Z,101290.7
2023-04-03T10:41:28.660Z,101273.23
2023-04-03T10:43:33.701Z,101286.19
2023-04-03T10:45:38.813Z,101273.84
2023-04-03T10:47:44.073Z,101280.81
2023-04-03T10:50:00.438Z,101273.84
2023-04-03T10:52:05.525Z,101269.19
2023-04-03T10:54:10.586Z,101280.08
2023-04-03T10:56:15.764Z,101279.53
2023-04-03T10:58:20.876Z,101291.54
2023-04-03T11:00:26.068Z,101286.78
2023-04-03T11:02:32.833Z,101281.67
2023-04-03T11:04:38.460Z,101285.34
2023-04-03T11:06:43.533Z,101286.23
2023-04-03T11:08:48.699Z,101282.8
2023-04-03T11:10:53.792Z,101270.95
2023-04-03T11:12:58.835Z,101285.02
2023-04-03T11:15:03.935Z,101283.31
2023-04-03T11:17:09.152Z,101277.52
2023-04-03T11:19:14.221Z,101284.8
2023-04-03T11:21:19.275Z,101282.41
2023-04-03T11:23:25.480Z,101272.44
2023-04-03T11:25:34.337Z,101279.1
2023-04-03T11:27:39.728Z,101280.73
2023-04-03T11:29:44.809Z,101275.41
2023-04-03T11:31:49.991Z,101277.48
2023-04-03T11:33:55.044Z,101272.63
2023-04-03T11:36:00.242Z,101270.53
2023-04-03T11:38:07.961Z,101284.88
2023-04-03T11:40:13.019Z,101281.66
2023-04-03T11:42:18.149Z,101279.31
2023-04-03T11:44:23.255Z,101262.66
2023-04-03T11:46:28.416Z,101248.46
2023-04-03T11:48:33.662Z,101260.99
2023-04-03T11:50:38.800Z,101252.08
2023-04-03T11:52:45.801Z,101261.69
2023-04-03T11:54:50.894Z,101263.53
2023-04-03T11:56:56.031Z,101262.38
2023-04-03T11:59:01.180Z,101269.31
2023-04-03T12:01:06.338Z,101252.01
2023-04-03T12:03:11.579Z,101267.77
2023-04-03T12:05:16.946Z,101270.31
2023-04-03T12:07:22.200Z,101256.47
2023-04-03T12:09:27.310Z,101254.86
2023-04-03T12:11:32.487Z,101265.27
2023-04-03T12:13:37.601Z,101253.05
2023-04-03T12:15:42.708Z,101240.89
2023-04-03T12:17:47.885Z,101258.28
2023-04-03T12:19:53.001Z,101237.03
2023-04-03T12:21:58.071Z,101248.03
2023-04-03T12:24:03.268Z,101253.28
2023-04-03T12:26:08.346Z,101250.7
2023-04-03T12:28:13.408Z,101260.03
2023-04-03T12:30:18.503Z,101253.46
2023-04-03T12:32:23.685Z,101241.42
2023-04-03T12:34:28.804Z,101247.53
2023-04-03T12:36:33.884Z,101240.06
2023-04-03T12:38:38.981Z,101241.16
2023-04-03T12:40:44.221Z,101248.41
2023-04-03T12:42:49.244Z,101243.16
2023-04-03T12:44:54.371Z,101250.13
2023-04-03T12:46:59.537Z,101238.94
2023-04-03T12:49:04.644Z,101249.44
2023-04-03T12:51:09.679Z,101242.13
2023-04-03T12:53:14.738Z,101234.8
2023-04-03T12:55:19.809Z,101240.94
2023-04-03T12:57:25.119Z,101226.2
2023-04-03T12:59:30.310Z,101241.22
2023-04-03T13:01:35.523Z,101247.22
2023-04-03T13:03:40.914Z,101246.72
2023-04-03T13:05:46.141Z,101241.94
2023-04-03T13:07:51.209Z,101251.72
2023-04-03T13:09:56.410Z,101236.08
2023-04-03T13:12:01.496Z,101240.28
2023-04-03T13:14:06.576Z,101239.05
2023-04-03T13:16:11.769Z,101247.19
2023-04-03T13:18:16.938Z,101242.42
2023-04-03T13:20:22.177Z,101235.25
2023-04-03T13:22:27.335Z,101246.23
2023-04-03T13:24:32.510Z,101245.61
2023-04-03T13:26:37.656Z,101243.59
2023-04-03T13:28:42.759Z,101232.33
2023-04-03T13:30:47.841Z,101247.17
2023-04-03T13:32:53.007Z,101247.78
2023-04-03T13:35:11.960Z,101244.63
2023-04-03T13:37:22.810Z,101232.26
2023-04-03T13:39:27.924Z,101237.77
2023-04-03T13:41:33.009Z,101226.44
2023-04-03T13:43:38.075Z,101234.23
2023-04-03T13:45:45.890Z,101242.44
2023-04-03T13:47:51.166Z,101247.23
2023-04-03T13:49:56.254Z,101239.75
2023-04-03T13:52:08.766Z,101243.3
2023-04-03T13:54:13.836Z,101234.95
2023-04-03T13:56:18.886Z,101211.13
2023-04-03T13:58:23.991Z,101244.08
2023-04-03T14:00:29.069Z,101233.98
2023-04-03T14:02:34.259Z,101225.77
2023-04-03T14:04:39.537Z,101220.76
2023-04-03T14:06:44.719Z,101229.76
2023-04-03T14:08:49.771Z,101236.25
2023-04-03T14:10:54.947Z,101233.92
2023-04-03T14:13:00.045Z,101233.22
2023-04-03T14:15:05.213Z,101228.7
2023-04-03T14:17:10.518Z,101241.48
2023-04-03T14:19:29.931Z,101234.83
2023-04-03T14:21:34.958Z,101237.78
2023-04-03T14:23:40.164Z,101240.37
2023-04-03T14:25:45.336Z,101236.03
2023-04-03T14:27:50.404Z,101243.59
2023-04-03T14:29:55.371Z,101242.9
2023-04-03T14:32:15.273Z,101230.85
2023-04-03T14:34:20.335Z,101238.54
2023-04-03T14:36:25.555Z,101230.38
2023-04-03T14:38:30.694Z,101226.23
2023-04-03T14:40:35.900Z,101226.84
2023-04-03T14:42:41.539Z,101217.77
2023-04-03T14:44:46.614Z,101220.73
2023-04-03T14:46:57.346Z,101208.89
2023-04-03T14:49:02.723Z,101219.05
2023-04-03T14:51:07.815Z,101204.72
2023-04-03T14:53:12.877Z,101201.4
2023-04-03T14:55:17.958Z,101217.67
2023-04-03T14:57:23.102Z,101219.53
2023-04-03T14:59:28.333Z,101224.48
2023-04-03T15:01:33.521Z,101221.13
2023-04-03T15:03:39.184Z,101227.05
2023-04-03T15:05:44.561Z,101235.26
2023-04-03T15:07:49.684Z,101223.89
2023-04-03T15:09:54.782Z,101230.25
2023-04-03T15:11:59.827Z,101231.03
2023-04-03T15:14:04.982Z,101217.63
2023-04-03T15:16:10.211Z,101233.92
2023-04-03T15:18:15.563Z,101221.81
2023-04-03T15:20:20.749Z,101230.44
2023-04-03T15:22:25.901Z,101229.64
2023-04-03T15:24:30.998Z,101228.05
2023-04-03T15:26:36.169Z,101231.23
2023-04-03T15:28:41.358Z,101232.25
2023-04-03T15:30:46.425Z,101233
2023-04-03T15:32:51.553Z,101234.19
2023-04-03T15:34:58.044Z,101225.96
2023-04-03T15:37:03.141Z,101237.18
2023-04-03T15:39:08.389Z,101237.2
2023-04-03T15:41:13.444Z,101237.77
2023-04-03T15:43:18.584Z,101237.33
2023-04-03T15:45:23.726Z,101233.7
2023-04-03T15:47:28.991Z,101235.16
2023-04-03T15:49:34.157Z,101245.14
2023-04-03T15:51:39.209Z,101233.72
2023-04-03T15:53:44.361Z,101240.64
2023-04-03T15:55:49.492Z,101237.54
2023-04-03T15:57:54.629Z,101238.25
2023-04-03T15:59:59.973Z,101240.28
2023-04-03T16:02:05.402Z,101243.99
2023-04-03T16:04:10.503Z,101238.83
2023-04-03T16:06:15.701Z,101247.45
2023-04-03T16:08:20.765Z,101250.74
2023-04-03T16:10:25.835Z,101250.21
2023-04-03T16:12:31.019Z,101242.25
2023-04-03T16:14:36.098Z,101247.44
2023-04-03T16:16:41.204Z,101259
2023-04-03T16:18:46.245Z,101253.77
2023-04-03T16:20:51.269Z,101261.05
2023-04-03T16:22:56.744Z,101266.88
2023-04-03T16:25:01.807Z,101275.08
2023-04-03T16:27:06.987Z,101272.84
2023-04-03T16:29:12.136Z,101258.97
2023-04-03T16:31:17.312Z,101273.5
2023-04-03T16:33:22.361Z,101265.13
2023-04-03T16:35:27.762Z,101270.19
2023-04-03T16:37:34.289Z,101278.16
2023-04-03T16:39:39.377Z,101268.36
2023-04-03T16:41:44.556Z,101267.13
2023-04-03T16:43:49.588Z,101279.61
2023-04-03T16:45:54.718Z,101277.23
2023-04-03T16:47:59.995Z,101280.09
2023-04-03T16:50:05.584Z,101281.19
2023-04-03T16:52:10.836Z,101281.91
2023-04-03T16:54:15.889Z,101287.97
2023-04-03T16:56:21.429Z,101285.03
2023-04-03T16:58:26.463Z,101289.35
2023-04-03T17:00:31.507Z,101278
2023-04-03T17:02:36.979Z,101291.77
2023-04-03T17:04:42.203Z,101283.44
2023-04-03T17:06:47.294Z,101282.13
2023-04-03T17:08:52.347Z,101286.13
2023-04-03T17:10:57.402Z,101287.45
2023-04-03T17:13:02.574Z,101289.72
2023-04-03T17:15:07.599Z,101290.74
2023-04-03T17:17:12.692Z,101286.17
2023-04-03T17:19:17.830Z,101276.99
2023-04-03T17:21:22.973Z,101277.8
2023-04-03T17:23:28.079Z,101284.8
2023-04-03T17:25:33.177Z,101261.67
2023-04-03T17:27:38.279Z,101275.77
2023-04-03T17:29:43.479Z,101290.73
2023-04-03T17:31:48.757Z,101296.59
2023-04-03T17:33:54.168Z,101291.58
2023-04-03T17:35:59.329Z,101282.81
2023-04-03T17:38:04.444Z,101285.7
2023-04-03T17:40:09.628Z,101287.97
2023-04-03T17:42:14.760Z,101289.05
2023-04-03T17:44:19.888Z,101289.83
2023-04-03T17:46:25.107Z,101281.11
2023-04-03T17:48:30.313Z,101291.14
2023-04-03T17:50:35.496Z,101290.16
2023-04-03T17:52:40.643Z,101289.59
2023-04-03T17:54:45.824Z,101289.93
2023-04-03T17:56:50.986Z,101290.8
2023-04-03T17:58:56.105Z,101300.73
2023-04-03T18:01:01.257Z,101307.52
2023-04-03T18:03:06.518Z,101303.25
2023-04-03T18:05:11.819Z,101295.84
2023-04-03T18:07:17.011Z,101299.88
2023-04-03T18:09:22.102Z,101304.41
2023-04-03T18:11:27.236Z,101304.78
2023-04-03T18:13:32.489Z,101299.93
2023-04-03T18:15:37.875Z,101302.81
2023-04-03T18:17:43.596Z,101305.81
2023-04-03T18:19:48.738Z,101306.8
2023-04-03T18:21:53.838Z,101307.43
2023-04-03T18:23:58.927Z,101304.84
2023-04-03T18:26:04.004Z,101306.48
2023-04-03T18:28:09.075Z,101303.17
2023-04-03T18:30:15.264Z,101303.28
2023-04-03T18:32:20.341Z,101304.83
2023-04-03T18:34:25.590Z,101303.93
2023-04-03T18:36:30.686Z,101305.52
2023-04-03T18:38:35.925Z,101302.25
2023-04-03T18:40:41.410Z,101309.11
2023-04-03T18:42:46.984Z,101309.32
2023-04-03T18:44:52.145Z,101307.81
2023-04-03T18:46:57.286Z,101309.66
2023-04-03T18:49:02.474Z,101302.88
2023-04-03T18:51:07.650Z,101305.38
2023-04-03T18:53:12.761Z,101304.89
2023-04-03T18:55:18.017Z,101306.69
2023-04-03T18:57:23.052Z,101309.94
2023-04-03T18:59:28.252Z,101315.01
2023-04-03T19:01:33.880Z,101305.27
2023-04-03T19:03:39.397Z,101305.61
2023-04-03T19:05:45.162Z,101301.3
2023-04-03T19:07:50.326Z,101303.38
2023-04-03T19:09:55.365Z,101307.42
2023-04-03T19:12:00.451Z,101303.64
2023-04-03T19:14:17.399Z,101303.39
2023-04-03T19:16:22.471Z,101301.05
2023-04-03T19:18:27.546Z,101296.71
2023-04-03T19:20:32.606Z,101302.55
2023-04-03T19:22:37.730Z,101301
2023-04-03T19:24:43.006Z,101305.97
2023-04-03T19:26:48.082Z,101302.08
2023-04-03T19:28:53.113Z,101308.53
2023-04-03T19:30:58.179Z,101308.48
2023-04-03T19:33:03.421Z,101306.63
2023-04-03T19:35:08.653Z,101293.72
2023-04-03T19:37:13.856Z,101296.55
2023-04-03T19:39:18.937Z,101294.9
2023-04-03T19:41:24.150Z,101297.13
2023-04-03T19:43:29.254Z,101298.41
2023-04-03T19:45:34.319Z,101301.28
2023-04-03T19:47:39.500Z,101300.09
2023-04-03T19:49:44.719Z,101297.92
2023-04-03T19:51:49.749Z,101299.53
2023-04-03T19:53:54.834Z,101305.27
2023-04-03T19:56:00.004Z,101304.09
2023-04-03T19:58:05.269Z,101303.44
2023-04-03T20:00:10.440Z,101302.77
2023-04-03T20:02:15.676Z,101299.91
2023-04-03T20:04:20.830Z,101299.09
2023-04-03T20:06:26.000Z,101302.84
2023-04-03T20:08:31.206Z,101306.11
2023-04-03T20:10:36.950Z,101302.06
2023-04-03T20:12:42.148Z,101306.89
2023-04-03T20:14:47.537Z,101305.39
2023-04-03T20:16:52.580Z,101310.95
2023-04-03T20:18:57.822Z,101311.78
2023-04-03T20:21:02.915Z,101307.78
2023-04-03T20:23:08.175Z,101306.52
2023-04-03T20:25:17.410Z,101306.78
2023-04-03T20:27:49.660Z,101309.84
2023-04-03T20:29:54.815Z,101306.42
2023-04-03T20:32:00.218Z,101311.54
2023-04-03T20:34:05.662Z,101310.05
2023-04-03T20:36:10.757Z,101311.01
2023-04-03T20:38:16.323Z,101308.11
2023-04-03T20:40:21.444Z,101310.65
2023-04-03T20:42:26.505Z,101310.04
2023-04-03T20:44:31.705Z,101318.17
2023-04-03T20:46:53.981Z,101319.52
2023-04-03T20:48:59.438Z,101315.23
2023-04-03T20:51:04.898Z,101315.77
2023-04-03T20:53:10.195Z,101315.59
2023-04-03T20:55:15.224Z,101317.59
2023-04-03T20:57:20.328Z,101312.64
2023-04-03T20:59:25.676Z,101309.02
2023-04-03T21:01:30.960Z,101312.59
2023-04-03T21:03:36.260Z,101321.3
2023-04-03T21:05:41.437Z,101319.45
2023-04-03T21:07:46.571Z,101315.78
2023-04-03T21:09:51.820Z,101317.88
2023-04-03T21:11:56.883Z,101320.98
2023-04-03T21:14:01.964Z,101314.45
2023-04-03T21:16:07.208Z,101314.13
2023-04-03T21:18:12.508Z,101318.31
2023-04-03T21:20:17.573Z,101315.45
2023-04-03T21:22:22.690Z,101315.91
2023-04-03T21:24:28.298Z,101319.73
2023-04-03T21:26:33.493Z,101316.06
2023-04-03T21:28:38.629Z,101318.03
2023-04-03T21:30:44.754Z,101317.13
2023-04-03T21:32:50.183Z,101317.42
2023-04-03T21:34:55.260Z,101325.94
2023-04-03T21:37:00.616Z,101321.66
2023-04-03T21:39:05.754Z,101322.52
2023-04-03T21:41:10.849Z,101324.8
2023-04-03T21:43:15.885Z,101324.21
2023-04-03T21:45:20.952Z,101321.5
2023-04-03T21:47:26.087Z,101323.24
2023-04-03T21:49:31.234Z,101323.3
2023-04-03T21:51:36.325Z,101321.89
2023-04-03T21:53:41.472Z,101325.08
2023-04-03T21:55:46.612Z,101320.84
2023-04-03T21:57:51.830Z,101320.69
2023-04-03T21:59:57.128Z,101322.95
2023-04-03T22:02:02.664Z,101327.1
2023-04-03T22:04:07.960Z,101323.07
2023-04-03T22:06:13.225Z,101325.95
2023-04-03T22:08:18.423Z,101322.48
2023-04-03T22:10:23.556Z,101321.91
2023-04-03T22:12:28.625Z,101322.31
2023-04-03T22:14:33.795Z,101323.15
2023-04-03T22:16:39.342Z,101325.14
2023-04-03T22:18:44.537Z,101326.41
2023-04-03T22:20:49.573Z,101331.36
2023-04-03T22:22:54.751Z,101335.59
2023-04-03T22:24:59.883Z,101333.72
2023-04-03T22:27:04.938Z,101334.72
2023-04-03T22:29:10.080Z,101336.91
2023-04-03T22:31:17.128Z,101337.59
2023-04-03T22:33:22.320Z,101333.97
2023-04-03T22:35:27.507Z,101332.3
2023-04-03T22:37:32.836Z,101337.27
2023-04-03T22:39:38.057Z,101337.8
2023-04-03T22:41:43.124Z,101335.93
2023-04-03T22:43:48.581Z,101335.06
2023-04-03T22:45:53.696Z,101340.98
2023-04-03T22:47:59.060Z,101339.97
2023-04-03T22:50:04.245Z,101339.44
2023-04-03T22:52:09.269Z,101343.16
2023-04-03T22:54:14.349Z,101338.43
2023-04-03T22:56:19.483Z,101338.63
2023-04-03T22:58:24.645Z,101342.27
2023-04-03T23:00:30.013Z,101346.7
2023-04-03T23:02:35.151Z,101342.06
2023-04-03T23:04:40.376Z,101340.02
2023-04-03T23:06:45.598Z,101341.97
2023-04-03T23:08:51.762Z,101341.5
2023-04-03T23:10:57.039Z,101344.83
2023-04-03T23:13:02.215Z,101344.22
2023-04-03T23:15:07.327Z,101338.86
2023-04-03T23:17:12.369Z,101338.56
2023-04-03T23:19:18.632Z,101335.52
2023-04-03T23:21:23.791Z,101333.85
2023-04-03T23:23:29.371Z,101331.3
2023-04-03T23:25:34.451Z,101334.8
2023-04-03T23:27:39.709Z,101332.91
2023-04-03T23:29:44.909Z,101331.31
2023-04-03T23:31:50.213Z,101336.11
2023-04-03T23:33:55.613Z,101331.67
2023-04-03T23:36:01.362Z,101330.84
2023-04-03T23:38:06.608Z,101330.77
2023-04-03T23:40:11.700Z,101335.74
2023-04-03T23:42:16.870Z,101329.78
2023-04-03T23:44:21.995Z,101326.52
2023-04-03T23:46:27.117Z,101324.58
2023-04-03T23:48:32.713Z,101322.92
2023-04-03T23:50:38.268Z,101325.86
2023-04-03T23:52:44.084Z,101322.23
2023-04-03T23:54:49.248Z,101320.45
2023-04-03T23:56:54.304Z,101318.78